Time;durP1;ratioP1;P1;durP2;ratioP2;P2;SDS_P1;SDS_P2;PMS_P1;PMS_P2;Temp;Humidity;BMP_temperature;BMP_pressure;BME280_temperature;BME280_humidity;BME280_pressure;Samples;Min_cycle;Max_cycle;Signal;HPM_P1;HPM_P2
2021/10/29 00:00:44;;;;;;;63.58;39.40;;;;;;;9.15;65.73;100668.63;5066647;28;20045;-70
2021/10/29 00:03:11;;;;;;;65.15;38.53;;;;;;;9.14;65.62;100669.53;5066590;28;20053;-72
2021/10/29 00:05:38;;;;;;;64.15;38.90;;;;;;;9.12;65.65;100663.53;5065821;28;20125;-70
2021/10/29 00:08:06;;;;;;;59.95;39.30;;;;;;;9.08;65.80;100664.66;5066157;28;20135;-72
2021/10/29 00:10:35;;;;;;;64.60;40.53;;;;;;;9.04;65.76;100663.13;5065175;28;20059;-70
2021/10/29 00:13:04;;;;;;;62.22;38.08;;;;;;;8.99;65.85;100661.63;5067207;28;20045;-71
2021/10/29 00:15:31;;;;;;;60.20;37.95;;;;;;;8.93;65.79;100661.13;5066487;28;20048;-72
2021/10/29 00:17:58;;;;;;;65.35;37.63;;;;;;;8.86;65.92;100650.13;5065588;28;20131;-71
2021/10/29 00:20:25;;;;;;;58.08;38.20;;;;;;;8.83;65.87;100655.56;5064390;28;20037;-73
2021/10/29 00:22:52;;;;;;;60.85;36.40;;;;;;;8.79;65.83;100656.69;5066817;28;20381;-71
2021/10/29 00:25:19;;;;;;;64.32;38.38;;;;;;;8.77;66.04;100662.03;5065443;28;20091;-70
2021/10/29 00:27:47;;;;;;;65.43;39.63;;;;;;;8.73;65.99;100650.00;5065251;28;20055;-71
2021/10/29 00:30:15;;;;;;;65.20;37.58;;;;;;;8.70;66.20;100655.44;5065717;28;20416;-71
2021/10/29 00:32:42;;;;;;;61.30;39.08;;;;;;;8.68;65.94;100652.03;5064663;28;20408;-70
2021/10/29 00:35:09;;;;;;;63.15;41.20;;;;;;;8.65;66.11;100644.31;5064919;28;20707;-71
2021/10/29 00:37:39;;;;;;;65.55;40.03;;;;;;;8.62;66.11;100639.22;5065641;28;20071;-69
2021/10/29 00:40:09;;;;;;;64.32;40.00;;;;;;;8.60;66.14;100633.19;5066000;28;20144;-70
2021/10/29 00:42:36;;;;;;;71.28;43.63;;;;;;;8.57;66.09;100636.88;5068231;28;20086;-70
2021/10/29 00:45:03;;;;;;;65.53;39.65;;;;;;;8.52;65.93;100633.66;5070794;28;20046;-72
2021/10/29 00:47:31;;;;;;;70.10;44.83;;;;;;;8.51;66.30;100631.94;5065612;28;20059;-72
2021/10/29 00:49:58;;;;;;;68.25;43.03;;;;;;;8.49;66.35;100627.72;5062584;28;20048;-73
2021/10/29 00:52:26;;;;;;;64.45;39.53;;;;;;;8.47;66.25;100633.06;5065535;28;20041;-72
2021/10/29 00:54:53;;;;;;;65.43;37.97;;;;;;;8.46;66.43;100630.50;5068314;28;20135;-71
2021/10/29 00:57:21;;;;;;;71.30;41.30;;;;;;;8.43;66.50;100628.91;5068640;28;20418;-72
2021/10/29 00:59:48;;;;;;;66.10;39.72;;;;;;;8.40;66.43;100624.63;5068641;28;20052;-71
2021/10/29 01:02:15;;;;;;;64.85;42.05;;;;;;;8.37;66.45;100627.47;5067945;28;20051;-71
2021/10/29 01:04:44;;;;;;;70.03;44.38;;;;;;;8.34;66.54;100611.84;5068175;28;20657;-70
2021/10/29 01:07:11;;;;;;;71.68;41.60;;;;;;;8.32;66.50;100615.47;5068836;28;20052;-70
2021/10/29 01:09:37;;;;;;;71.88;43.47;;;;;;;8.28;66.42;100620.06;5068191;28;20510;-71
2021/10/29 01:12:05;;;;;;;68.82;43.90;;;;;;;8.27;66.43;100618.38;5068891;28;20499;-71
2021/10/29 01:14:32;;;;;;;72.45;43.17;;;;;;;8.26;66.52;100608.78;5068542;28;20044;-69
2021/10/29 01:16:59;;;;;;;76.15;43.33;;;;;;;8.24;66.41;100611.50;5068647;28;20045;-70
2021/10/29 01:19:32;;;;;;;72.32;43.72;;;;;;;8.24;66.55;100611.50;5068018;28;20097;-71
2021/10/29 01:22:03;;;;;;;71.63;44.78;;;;;;;8.24;66.42;100603.59;5067486;28;20044;-70
2021/10/29 01:24:30;;;;;;;76.78;45.85;;;;;;;8.20;66.45;100604.72;5068744;28;20044;-69
2021/10/29 01:26:57;;;;;;;77.80;45.63;;;;;;;8.17;66.61;100599.63;5068161;28;20090;-69
2021/10/29 01:29:24;;;;;;;66.40;41.90;;;;;;;8.19;66.52;100608.31;5067246;28;20068;-70
2021/10/29 01:31:52;;;;;;;80.65;46.35;;;;;;;8.15;66.64;100598.03;5067639;28;20136;-70
2021/10/29 01:34:19;;;;;;;77.18;44.00;;;;;;;8.15;66.57;100595.41;5072603;28;20051;-71
2021/10/29 01:36:46;;;;;;;93.22;51.63;;;;;;;8.11;66.52;100594.72;5069565;28;20664;-69
2021/10/29 01:39:17;;;;;;;78.80;46.67;;;;;;;8.11;66.60;100593.88;5068276;28;20492;-69
2021/10/29 01:41:44;;;;;;;78.53;45.08;;;;;;;8.05;66.88;100592.44;5068409;28;20048;-69
2021/10/29 01:44:12;;;;;;;81.18;47.80;;;;;;;8.05;66.49;100597.72;5068128;28;20048;-71
2021/10/29 01:46:40;;;;;;;73.20;44.13;;;;;;;8.03;66.59;100592.53;5067529;28;20041;-70
2021/10/29 01:49:08;;;;;;;79.95;47.00;;;;;;;8.00;66.67;100584.81;5066490;28;20688;-69
2021/10/29 01:51:35;;;;;;;74.38;47.25;;;;;;;7.97;66.58;100584.97;5067152;28;20048;-70
2021/10/29 01:54:02;;;;;;;78.72;49.22;;;;;;;7.94;66.65;100589.56;5066607;28;20045;-70
2021/10/29 01:56:30;;;;;;;76.90;44.85;;;;;;;7.93;66.68;100583.44;5067655;28;20045;-71
2021/10/29 01:58:58;;;;;;;84.45;46.08;;;;;;;7.90;66.62;100580.16;5067057;28;20059;-70
2021/10/29 02:01:25;;;;;;;83.80;49.88;;;;;;;7.90;66.70;100574.88;5066605;28;20128;-71
2021/10/29 02:03:52;;;;;;;82.20;46.90;;;;;;;7.88;66.65;100574.13;5069236;28;20059;-71
2021/10/29 02:06:19;;;;;;;82.65;49.42;;;;;;;7.88;66.67;100574.13;5067820;28;20044;-71
2021/10/29 02:08:46;;;;;;;85.60;47.90;;;;;;;7.89;66.84;100575.84;5067063;28;20174;-70
2021/10/29 02:11:13;;;;;;;93.85;51.33;;;;;;;7.90;66.80;100569.63;5067893;28;20051;-71
2021/10/29 02:13:42;;;;;;;82.57;48.90;;;;;;;7.92;66.90;100573.00;5067723;28;20152;-70
2021/10/29 02:16:09;;;;;;;89.82;51.63;;;;;;;7.91;66.72;100566.91;5067550;28;20067;-70
2021/10/29 02:18:36;;;;;;;94.00;49.35;;;;;;;7.89;66.87;100568.78;5065411;28;20055;-69
2021/10/29 02:21:03;;;;;;;88.85;50.60;;;;;;;7.89;66.90;100576.69;5067786;28;20047;-71
2021/10/29 02:23:30;;;;;;;87.50;46.97;;;;;;;7.91;66.89;100573.97;5068445;28;20172;-72
2021/10/29 02:25:57;;;;;;;82.20;50.33;;;;;;;7.93;66.95;100574.72;5075806;28;20086;-70
2021/10/29 02:28:25;;;;;;;86.80;49.60;;;;;;;7.93;67.12;100575.56;5069181;28;20063;-71
2021/10/29 02:30:53;;;;;;;85.75;48.03;;;;;;;7.95;67.08;100572.84;5067474;28;20071;-70
2021/10/29 02:33:20;;;;;;;83.90;50.42;;;;;;;7.96;66.89;100566.63;5067289;28;20059;-70
2021/10/29 02:35:48;;;;;;;95.07;52.33;;;;;;;7.95;67.03;100559.69;5066463;28;20049;-71
2021/10/29 02:38:15;;;;;;;92.88;49.00;;;;;;;7.97;67.10;100565.72;5067263;28;20049;-71
2021/10/29 02:40:42;;;;;;;88.88;48.30;;;;;;;7.97;67.02;100565.72;5070901;28;20060;-71
2021/10/29 02:43:11;;;;;;;89.22;49.20;;;;;;;7.96;67.06;100559.63;5067232;28;20063;-71
2021/10/29 02:45:38;;;;;;;88.57;53.45;;;;;;;7.96;67.04;100564.00;5067478;28;20067;-72
2021/10/29 02:48:07;;;;;;;84.38;50.05;;;;;;;7.96;67.23;100566.63;5066241;28;20599;-72
2021/10/29 02:50:34;;;;;;;80.70;51.58;;;;;;;7.96;67.14;100564.88;5066728;28;20052;-71
2021/10/29 02:53:03;;;;;;;88.90;51.65;;;;;;;7.95;67.04;100565.81;5066975;28;20052;-72
2021/10/29 02:55:30;;;;;;;81.85;50.72;;;;;;;7.95;67.02;100563.16;5067264;28;20048;-71
2021/10/29 02:57:57;;;;;;;84.35;49.40;;;;;;;7.92;67.10;100557.22;5066005;28;20052;-72
2021/10/29 03:00:25;;;;;;;80.97;48.35;;;;;;;7.90;67.04;100553.84;5066405;28;20044;-70
2021/10/29 03:02:51;;;;;;;74.35;45.65;;;;;;;7.89;67.12;100560.91;5066071;28;20060;-70
2021/10/29 03:05:20;;;;;;;87.43;49.72;;;;;;;7.87;67.03;100554.00;5066645;28;20057;-70
2021/10/29 03:07:47;;;;;;;90.40;52.75;;;;;;;7.85;67.06;100554.97;5065622;28;20463;-69
2021/10/29 03:10:15;;;;;;;92.03;54.08;;;;;;;7.83;67.16;100554.22;5066884;28;20055;-69
2021/10/29 03:12:41;;;;;;;92.45;51.35;;;;;;;7.83;67.07;100551.56;5066377;28;20053;-70
2021/10/29 03:15:11;;;;;;;87.72;50.88;;;;;;;7.78;67.21;100550.97;5066946;28;20105;-72
2021/10/29 03:17:39;;;;;;;87.50;53.15;;;;;;;7.76;66.92;100544.97;5065757;28;20361;-71
2021/10/29 03:20:08;;;;;;;90.13;51.60;;;;;;;7.74;67.16;100549.47;5064415;28;20044;-70
2021/10/29 03:22:37;;;;;;;85.88;53.63;;;;;;;7.75;67.30;100550.31;5065112;28;20532;-71
2021/10/29 03:25:06;;;;;;;96.15;53.65;;;;;;;7.73;67.03;100546.91;5066050;28;20106;-71
2021/10/29 03:27:33;;;;;;;85.47;52.28;;;;;;;7.72;67.13;100545.22;5067002;28;20155;-70
2021/10/29 03:30:00;;;;;;;80.72;49.33;;;;;;;7.73;67.14;100546.91;5066089;28;20472;-72
2021/10/29 03:32:27;;;;;;;92.10;51.90;;;;;;;7.71;67.05;100543.53;5065734;28;20477;-71
2021/10/29 03:34:53;;;;;;;94.85;58.33;;;;;;;7.69;67.22;100545.38;5066110;28;20503;-71
2021/10/29 03:37:38;;;;;;;88.80;54.45;;;;;;;7.65;67.23;100549.94;5066350;28;20447;-70
2021/10/29 03:40:14;;;;;;;92.07;51.00;;;;;;;7.66;67.16;100551.66;5065680;28;20432;-71
2021/10/29 03:42:45;;;;;;;;;;;;;;;7.90;66.29;100549.44;5066911;28;20151;-72
2021/10/29 03:45:15;;;;;;;89.55;52.92;;;;;;;7.66;66.73;100549.03;5066042;28;19931;-71
2021/10/29 03:47:46;;;;;;;92.22;53.22;;;;;;;7.57;67.08;100546.91;5065586;28;20040;-70
2021/10/29 03:50:17;;;;;;;88.85;52.13;;;;;;;7.55;67.19;100543.53;5063508;28;20106;-70
2021/10/29 03:52:51;;;;;;;90.97;52.50;;;;;;;7.52;67.18;100543.69;5065607;28;20047;-71
2021/10/29 03:55:20;;;;;;;94.35;55.30;;;;;;;7.52;67.25;100543.69;5064681;28;20087;-71
2021/10/29 03:57:47;;;;;;;98.70;54.88;;;;;;;7.50;67.15;100546.41;5066625;28;20041;-71
2021/10/29 04:00:14;;;;;;;85.68;50.13;;;;;;;7.51;67.15;100539.34;5066269;28;20044;-70
2021/10/29 04:02:40;;;;;;;94.68;55.03;;;;;;;7.49;67.17;100541.22;5065330;28;20036;-69
2021/10/29 04:05:08;;;;;;;91.80;54.22;;;;;;;7.47;67.20;100536.03;5065659;28;20044;-71
2021/10/29 04:07:35;;;;;;;88.35;52.20;;;;;;;7.48;67.22;100543.00;5065399;28;20074;-72
2021/10/29 04:10:01;;;;;;;85.00;51.88;;;;;;;7.46;67.12;100537.84;5065157;28;20052;-71
2021/10/29 04:12:31;;;;;;;88.57;52.03;;;;;;;7.44;67.11;100534.44;5065875;28;20045;-71
2021/10/29 04:14:59;;;;;;;85.40;51.53;;;;;;;7.44;67.17;100536.25;5065882;28;20041;-71
2021/10/29 04:17:25;;;;;;;87.82;53.70;;;;;;;7.42;67.17;100535.47;5065854;28;20068;-68
2021/10/29 04:19:52;;;;;;;97.07;53.50;;;;;;;7.41;67.24;100537.22;5063931;28;20167;-75
2021/10/29 04:22:19;;;;;;;98.13;53.15;;;;;;;7.39;67.12;100528.59;5065476;28;20044;-68
2021/10/29 04:24:46;;;;;;;93.32;53.35;;;;;;;7.39;67.10;100527.75;5066329;28;20048;-69
2021/10/29 04:27:20;;;;;;;89.55;55.28;;;;;;;7.36;67.16;100528.75;5065542;28;20057;-71
2021/10/29 04:29:50;;;;;;;89.45;55.70;;;;;;;7.37;67.08;100525.19;5068046;28;20040;-71
2021/10/29 04:32:17;;;;;;;88.13;52.47;;;;;;;7.35;67.05;100532.31;5070256;28;20072;-69
2021/10/29 04:34:44;;;;;;;87.63;49.97;;;;;;;7.33;67.00;100523.69;5069438;28;20055;-70
2021/10/29 04:37:11;;;;;;;83.40;51.97;;;;;;;7.33;67.10;100526.31;5069494;28;20052;-70
2021/10/29 04:39:38;;;;;;;93.03;52.70;;;;;;;7.33;66.99;100523.69;5070040;28;20665;-70
2021/10/29 04:42:06;;;;;;;85.15;52.40;;;;;;;7.30;67.08;100528.25;5069577;28;20435;-71
2021/10/29 04:44:33;;;;;;;88.65;52.90;;;;;;;7.30;66.98;100528.25;5067991;28;20504;-71
2021/10/29 04:47:01;;;;;;;85.85;49.78;;;;;;;7.26;66.94;100528.41;5068437;28;20048;-72
2021/10/29 04:49:28;;;;;;;84.00;48.17;;;;;;;7.24;67.00;100522.41;5066794;28;20692;-72
2021/10/29 04:51:54;;;;;;;86.28;47.63;;;;;;;7.21;66.97;100519.09;5068666;28;20045;-72
2021/10/29 04:54:22;;;;;;;79.60;48.67;;;;;;;7.19;66.92;100521.81;5068871;28;20139;-71
2021/10/29 04:56:49;;;;;;;84.45;47.28;;;;;;;7.18;66.86;100516.63;5068555;28;20119;-72
2021/10/29 04:59:17;;;;;;;73.90;50.45;;;;;;;7.16;66.78;100510.59;5067393;28;20044;-70
2021/10/29 05:01:46;;;;;;;77.53;47.03;;;;;;;7.13;66.74;100521.28;5070249;28;20131;-71
2021/10/29 05:04:15;;;;;;;82.47;49.95;;;;;;;7.12;66.95;100515.19;5068989;28;20056;-71
2021/10/29 05:06:42;;;;;;;79.57;48.15;;;;;;;7.08;66.91;100511.88;5067480;28;20535;-71
2021/10/29 05:09:17;;;;;;;85.20;48.15;;;;;;;7.08;66.81;100513.66;5069353;28;20100;-71
2021/10/29 05:11:44;;;;;;;79.00;48.33;;;;;;;7.06;66.81;100515.53;5079671;28;20029;-77
2021/10/29 05:14:10;;;;;;;81.50;51.28;;;;;;;7.04;66.81;100512.09;5076811;28;20040;-75
2021/10/29 05:16:37;;;;;;;73.03;47.60;;;;;;;7.00;66.94;100508.78;5067943;28;20546;-75
2021/10/29 05:19:05;;;;;;;77.57;47.50;;;;;;;7.00;66.65;100514.03;5070018;28;20665;-72
2021/10/29 05:21:33;;;;;;;83.05;50.80;;;;;;;6.99;66.88;100514.16;5068026;28;20048;-72
2021/10/29 05:24:01;;;;;;;81.03;48.85;;;;;;;6.98;66.84;100512.44;5070907;28;20048;-74
2021/10/29 05:26:27;;;;;;;80.78;49.15;;;;;;;6.97;66.77;100516.00;5068999;28;20044;-71
2021/10/29 05:28:55;;;;;;;82.53;49.25;;;;;;;6.96;66.87;100514.31;5066865;28;20053;-69
2021/10/29 05:31:22;;;;;;;74.97;47.00;;;;;;;6.96;66.72;100516.94;5068269;28;20051;-71
2021/10/29 05:33:49;;;;;;;78.72;48.78;;;;;;;6.96;66.84;100512.53;5056672;28;20128;-70
2021/10/29 05:36:16;;;;;;;75.40;45.97;;;;;;;6.97;66.77;100513.38;5054947;28;20441;-71
2021/10/29 05:38:44;;;;;;;79.03;47.05;;;;;;;6.98;66.77;100515.91;5059681;28;20059;-70
2021/10/29 05:41:12;;;;;;;69.57;43.65;;;;;;;6.99;66.65;100511.53;5065808;28;20056;-70
2021/10/29 05:43:39;;;;;;;83.13;47.75;;;;;;;7.00;66.74;100510.59;5066808;28;20401;-70
2021/10/29 05:46:06;;;;;;;79.65;47.90;;;;;;;7.02;66.63;100513.97;5065957;28;20064;-70
2021/10/29 05:48:33;;;;;;;80.35;49.70;;;;;;;7.04;66.76;100512.97;5063764;28;20052;-72
2021/10/29 05:51:09;;;;;;;77.20;46.53;;;;;;;7.07;66.61;100512.78;5066237;28;20404;-71
2021/10/29 05:53:39;;;;;;;80.57;49.80;;;;;;;7.11;66.51;100523.13;5069006;28;20037;-75
2021/10/29 05:56:08;;;;;;;69.93;45.42;;;;;;;7.14;66.52;100515.09;5064505;28;20052;-74
2021/10/29 05:58:36;;;;;;;80.55;46.45;;;;;;;7.14;66.46;100508.06;5067219;28;20040;-73
2021/10/29 06:01:04;;;;;;;72.55;44.50;;;;;;;7.16;66.57;100507.97;5066983;28;20109;-71
2021/10/29 06:03:31;;;;;;;72.82;44.80;;;;;;;7.17;66.46;100513.16;5066210;28;20118;-72
2021/10/29 06:05:59;;;;;;;64.95;41.72;;;;;;;7.19;66.42;100516.53;5066547;28;20044;-72
2021/10/29 06:08:26;;;;;;;76.20;48.33;;;;;;;7.26;66.41;100519.69;5057789;28;20449;-74
2021/10/29 06:10:53;;;;;;;76.43;48.90;;;;;;;7.28;66.26;100523.09;5053242;28;20087;-72
2021/10/29 06:13:21;;;;;;;77.72;44.85;;;;;;;7.33;66.24;100517.56;5053522;28;20041;-74
2021/10/29 06:15:48;;;;;;;75.95;45.35;;;;;;;7.33;66.22;100507.91;5053598;28;20036;-75
2021/10/29 06:18:23;;;;;;;75.25;47.28;;;;;;;7.36;66.05;100509.53;5058404;28;20202;-73
2021/10/29 06:20:52;;;;;;;73.53;40.70;;;;;;;7.43;65.90;100519.59;5056494;28;20495;-73
2021/10/29 06:23:23;;;;;;;66.15;42.55;;;;;;;7.49;65.87;100517.56;5062816;28;20123;-78
2021/10/29 06:25:53;;;;;;;73.00;41.58;;;;;;;7.52;65.88;100517.41;5064197;28;20050;-75
2021/10/29 06:28:28;;;;;;;72.43;45.95;;;;;;;7.57;65.85;100521.47;5058372;28;20043;-76
2021/10/29 06:30:56;;;;;;;66.45;39.80;;;;;;;7.61;65.67;100524.78;5054676;28;20536;-75
2021/10/29 06:33:24;;;;;;;76.25;44.50;;;;;;;7.66;65.85;100525.38;5055229;28;20060;-73
2021/10/29 06:35:53;;;;;;;67.55;43.33;;;;;;;7.73;65.79;100529.34;5054940;28;20052;-74
2021/10/29 06:38:20;;;;;;;70.32;44.05;;;;;;;7.81;65.61;100528.91;5052574;28;20037;-73
2021/10/29 06:40:48;;;;;;;66.28;41.05;;;;;;;7.88;65.64;100524.16;5056189;28;20045;-75
2021/10/29 06:43:24;;;;;;;65.80;42.05;;;;;;;7.92;65.59;100523.88;5061866;28;20071;-74
2021/10/29 06:46:08;;;;;;;67.28;41.95;;;;;;;8.05;65.51;100526.69;5055131;28;20056;-74
2021/10/29 06:48:48;;;;;;;59.22;39.03;;;;;;;8.10;65.56;100529.88;5053300;28;20053;-75
2021/10/29 06:59:36;;;;;;;65.95;41.25;;;;;;;8.39;65.03;100527.31;5052831;28;20122;-73
2021/10/29 07:02:25;;;;;;;60.08;40.17;;;;;;;8.46;64.99;100533.94;5056453;28;20158;-75
2021/10/29 07:05:22;;;;;;;68.95;42.28;;;;;;;8.56;64.80;100532.47;5052517;28;20056;-73
2021/10/29 07:41:00;;;;;;;59.92;38.20;;;;;;;9.89;62.85;100537.44;5008829;28;20172;-73
2021/10/29 07:43:34;;;;;;;53.92;36.55;;;;;;;9.95;62.91;100540.50;5014714;28;20057;-74
2021/10/29 07:46:01;;;;;;;56.90;38.17;;;;;;;10.03;62.88;100526.84;5011690;28;20054;-74
2021/10/29 07:48:29;;;;;;;59.25;35.75;;;;;;;10.13;62.58;100535.81;5007593;28;20042;-73
2021/10/29 07:50:58;;;;;;;55.58;37.13;;;;;;;10.24;62.45;100534.28;5015120;28;20073;-73
2021/10/29 07:53:25;;;;;;;49.92;36.15;;;;;;;10.32;62.28;100543.41;5008551;28;20046;-72
2021/10/29 07:55:52;;;;;;;54.15;37.35;;;;;;;10.42;62.09;100532.22;5012536;28;20180;-72
2021/10/29 07:58:19;;;;;;;56.50;37.15;;;;;;;10.49;62.07;100534.34;5007798;28;20457;-72
2021/10/29 08:00:47;;;;;;;46.75;34.28;;;;;;;10.61;61.72;100547.69;5010922;28;20054;-73
2021/10/29 08:03:14;;;;;;;49.08;34.83;;;;;;;10.75;61.39;100539.66;5015932;28;20572;-70
2021/10/29 08:05:45;;;;;;;59.75;37.80;;;;;;;10.88;61.21;100539.66;5043677;28;20049;-72
2021/10/29 08:08:16;;;;;;;52.28;34.75;;;;;;;11.01;60.90;100537.00;5042545;28;20065;-71
2021/10/29 08:10:43;;;;;;;49.88;36.10;;;;;;;11.11;60.60;100540.69;5043280;28;20045;-72
2021/10/29 08:13:10;;;;;;;49.25;32.83;;;;;;;11.24;60.29;100536.22;5043371;28;20416;-73
2021/10/29 08:15:38;;;;;;;46.50;32.42;;;;;;;11.37;60.08;100530.06;5041814;28;20665;-71
2021/10/29 08:18:06;;;;;;;54.63;38.50;;;;;;;11.50;59.98;100537.97;5042073;28;20055;-72
2021/10/29 08:20:34;;;;;;;53.97;35.72;;;;;;;11.66;59.72;100535.91;5041471;28;20139;-73
2021/10/29 08:23:01;;;;;;;52.72;33.90;;;;;;;11.82;59.32;100535.63;5041192;28;20158;-72
2021/10/29 08:25:30;;;;;;;54.03;36.42;;;;;;;11.96;58.99;100543.44;5043343;28;20111;-72
2021/10/29 08:27:57;;;;;;;47.33;31.80;;;;;;;12.13;58.64;100536.88;5042025;28;20048;-74
2021/10/29 08:30:24;;;;;;;47.42;32.85;;;;;;;12.29;58.28;100535.75;5042741;28;20041;-73
2021/10/29 08:32:52;;;;;;;45.25;33.03;;;;;;;12.36;58.00;100545.75;5043756;28;20055;-71
2021/10/29 08:35:19;;;;;;;46.00;33.08;;;;;;;12.53;57.57;100533.03;5023883;28;20615;-74
2021/10/29 08:37:49;;;;;;;52.35;33.08;;;;;;;12.71;57.23;100528.13;5042802;28;20139;-71
2021/10/29 08:40:16;;;;;;;45.92;31.52;;;;;;;12.91;57.03;100538.06;5042832;28;20631;-72
2021/10/29 08:42:45;;;;;;;44.85;31.52;;;;;;;13.20;56.46;100534.94;5043183;28;20203;-72
2021/10/29 08:45:13;;;;;;;44.70;31.70;;;;;;;13.47;55.88;100544.31;5047331;28;20060;-74
2021/10/29 08:47:41;;;;;;;45.25;32.53;;;;;;;13.71;55.45;100541.50;5042434;28;20136;-75
2021/10/29 08:50:11;;;;;;;51.20;35.33;;;;;;;13.91;54.75;100543.38;5053973;28;20565;-76
2021/10/29 08:52:39;;;;;;;48.28;34.85;;;;;;;14.05;54.44;100536.94;5046293;28;20080;-75
2021/10/29 08:55:08;;;;;;;43.40;32.65;;;;;;;14.25;54.03;100531.78;5044028;28;20047;-74
2021/10/29 08:57:35;;;;;;;46.35;34.78;;;;;;;14.41;53.30;100536.66;5044370;28;20060;-74
2021/10/29 09:00:09;;;;;;;41.95;31.10;;;;;;;14.50;53.17;100525.25;5044121;28;20037;-74
2021/10/29 09:02:42;;;;;;;38.70;29.98;;;;;;;14.69;52.92;100532.50;5043525;28;20568;-76
2021/10/29 09:05:15;;;;;;;42.20;31.17;;;;;;;14.90;52.27;100537.81;5042914;28;20502;-73
2021/10/29 09:07:50;;;;;;;41.58;28.52;;;;;;;15.13;51.77;100537.66;5046771;28;20743;-75
2021/10/29 09:32:33;;;;;;;45.35;29.92;;;;;;;18.57;44.58;100525.75;5057378;28;20107;-73
2021/10/29 09:35:06;;;;;;;39.90;27.20;;;;;;;19.34;42.67;100522.31;5053166;28;20382;-75
2021/10/29 09:37:38;;;;;;;36.13;28.92;;;;;;;19.90;40.23;100515.47;5053106;28;20060;-75
2021/10/29 09:40:14;;;;;;;35.47;26.52;;;;;;;19.20;41.58;100527.28;5056010;28;20049;-77
2021/10/29 09:42:43;;;;;;;36.30;23.75;;;;;;;18.57;42.47;100519.56;5053841;28;20047;-76
2021/10/29 09:45:15;;;;;;;31.73;25.02;;;;;;;18.11;43.32;100527.69;5057246;28;20084;-74
2021/10/29 09:47:48;;;;;;;39.25;28.15;;;;;;;17.77;43.71;100537.22;5065934;28;20041;-75
2021/10/29 09:50:27;;;;;;;40.30;26.33;;;;;;;17.51;44.13;100528.25;5062455;28;20044;-74
2021/10/29 09:53:09;;;;;;;35.08;26.00;;;;;;;17.34;44.44;100528.06;5058336;28;20078;-73
2021/10/29 09:58:18;;;;;;;31.33;25.20;;;;;;;17.12;44.37;100529.25;5053208;28;20049;-79
2021/10/29 10:00:45;;;;;;;37.25;24.52;;;;;;;17.06;44.48;100523.69;5058668;28;20103;-73
2021/10/29 10:03:17;;;;;;;36.38;24.73;;;;;;;17.05;44.66;100524.66;5051526;28;20120;-74
2021/10/29 10:05:45;;;;;;;35.10;25.02;;;;;;;17.06;44.55;100518.34;5056201;28;20048;-77
2021/10/29 10:08:14;;;;;;;36.60;25.23;;;;;;;17.09;44.38;100523.41;5052506;28;20432;-74
2021/10/29 10:10:46;;;;;;;36.67;24.77;;;;;;;17.31;43.98;100520.34;5054468;28;20128;-74
2021/10/29 10:13:14;;;;;;;35.83;26.27;;;;;;;18.17;42.24;100518.22;5046953;28;20075;-73
2021/10/29 10:15:42;;;;;;;31.48;24.08;;;;;;;19.42;39.57;100508.97;5050454;28;20520;-74
2021/10/29 10:18:09;;;;;;;32.80;23.13;;;;;;;20.60;37.75;100500.72;5060737;28;20050;-75
2021/10/29 10:20:38;;;;;;;34.40;24.42;;;;;;;21.44;36.21;100506.44;5064713;28;20102;-76
2021/10/29 10:23:07;;;;;;;36.50;25.00;;;;;;;21.77;35.82;100500.94;5054459;28;20048;-73
2021/10/29 10:25:57;;;;;;;33.55;25.42;;;;;;;21.13;36.66;100488.47;5059103;28;20052;-72
2021/10/29 10:28:58;;;;;;;34.58;23.90;;;;;;;20.12;38.36;100494.38;5065613;28;20053;-74
2021/10/29 10:42:50;;;;;;;32.60;25.30;;;;;;;18.23;41.18;100486.38;4949674;28;20057;-73
2021/10/29 10:45:35;;;;;;;33.95;27.00;;;;;;;18.06;41.53;100481.88;4998365;28;20050;-74
2021/10/29 10:48:03;;;;;;;32.80;24.20;;;;;;;18.02;41.44;100481.34;4999977;28;20042;-73
2021/10/29 10:50:34;;;;;;;31.73;24.38;;;;;;;17.98;41.53;100488.00;4998108;28;20042;-74
2021/10/29 10:53:32;;;;;;;31.52;24.48;;;;;;;18.02;41.54;100484.03;5001334;28;20711;-76
2021/10/29 10:59:12;;;;;;;32.43;24.10;;;;;;;18.14;41.48;100471.28;5001706;28;20595;-74
2021/10/29 11:04:50;;;;;;;37.55;24.60;;;;;;;17.96;41.79;100466.78;4932513;29;20297;-74
2021/10/29 11:09:53;;;;;;;34.00;25.33;;;;;;;17.91;41.98;100461.06;4923881;29;20051;-73
2021/10/29 11:10:53;;;;;;;31.15;24.88;;;;;;;17.78;41.89;100466.75;4949461;28;20081;-76
2021/10/29 11:13:21;;;;;;;29.55;21.95;;;;;;;17.70;42.08;100458.69;4976234;28;20050;-75
2021/10/29 11:16:01;;;;;;;36.70;24.30;;;;;;;17.76;42.07;100460.72;4970938;28;20063;-74
2021/10/29 11:18:34;;;;;;;32.47;22.90;;;;;;;17.84;42.10;100462.63;4970772;28;20042;-75
2021/10/29 11:21:24;;;;;;;31.25;21.88;;;;;;;17.97;41.88;100451.59;4980325;28;20061;-79
2021/10/29 11:23:56;;;;;;;37.60;23.92;;;;;;;17.95;41.75;100449.09;4976015;28;20067;-76
2021/10/29 11:26:41;;;;;;;33.30;25.83;;;;;;;17.87;42.04;100449.00;4981462;28;20066;-81
2021/10/29 11:29:09;;;;;;;33.03;23.98;;;;;;;17.77;42.09;100449.06;4981777;28;20050;-74
2021/10/29 11:31:39;;;;;;;35.50;23.83;;;;;;;17.79;42.06;100454.25;4969251;28;20486;-73
2021/10/29 11:34:08;;;;;;;28.65;22.63;;;;;;;18.02;41.76;100440.44;4973685;28;20622;-74
2021/10/29 11:36:37;;;;;;;35.50;22.77;;;;;;;18.69;40.62;100432.66;4975151;28;20493;-74
2021/10/29 11:39:07;;;;;;;33.95;22.77;;;;;;;19.50;38.96;100431.31;4981321;28;20046;-74
2021/10/29 11:41:37;;;;;;;30.52;22.67;;;;;;;20.22;37.72;100430.66;5045507;28;20055;-75
2021/10/29 11:44:07;;;;;;;34.00;24.15;;;;;;;21.03;36.03;100427.94;5044519;28;20053;-75
2021/10/29 11:46:35;;;;;;;33.55;23.90;;;;;;;20.72;36.58;100423.34;5047449;28;20041;-74
2021/10/29 11:49:05;;;;;;;34.50;23.50;;;;;;;19.99;37.80;100425.16;5051961;28;20361;-74
2021/10/29 11:51:33;;;;;;;33.50;24.05;;;;;;;19.41;38.85;100424.25;5045362;28;20143;-73
2021/10/29 11:54:10;;;;;;;31.40;23.17;;;;;;;19.08;39.86;100422.31;5050018;28;20155;-74
2021/10/29 11:56:42;;;;;;;28.23;20.88;;;;;;;18.96;39.83;100417.44;5058847;28;20053;-74
2021/10/29 12:05:48;;;;;;;32.38;23.88;;;;;;;18.84;40.20;100407.03;5056660;28;20037;-73
2021/10/29 12:07:37;;;;;;;30.95;22.23;;;;;;;18.64;40.37;100402.91;5070947;28;20063;-74
2021/10/29 12:10:08;;;;;;;30.02;22.23;;;;;;;18.48;40.62;100404.47;5085304;28;20048;-73
2021/10/29 12:12:39;;;;;;;31.15;21.88;;;;;;;18.45;40.93;100395.94;5080069;28;20052;-74
2021/10/29 12:15:10;;;;;;;25.35;19.30;;;;;;;18.38;40.74;100392.22;5085833;28;20488;-74
2021/10/29 12:17:47;;;;;;;30.35;21.15;;;;;;;18.32;41.21;100389.19;5083733;28;20052;-76
2021/10/29 12:20:19;;;;;;;28.75;19.92;;;;;;;18.30;40.87;100382.31;5084321;28;20048;-76
2021/10/29 12:22:47;;;;;;;32.95;22.00;;;;;;;18.28;40.91;100381.66;5073157;28;20104;-75
2021/10/29 12:25:22;;;;;;;29.95;22.13;;;;;;;18.19;41.04;100378.09;5073539;28;20576;-74
2021/10/29 12:27:56;;;;;;;30.92;23.95;;;;;;;18.13;41.04;100379.56;5072198;28;20040;-74
2021/10/29 12:30:33;;;;;;;37.27;22.93;;;;;;;18.12;41.14;100377.03;5070582;28;20044;-74
2021/10/29 12:39:09;;;;;;;25.98;18.55;;;;;;;19.12;39.32;100358.56;5071371;28;20051;-73
2021/10/29 13:01:39;;;;;;;26.52;18.80;;;;;;;18.66;40.90;100347.41;5080848;28;20076;-73
2021/10/29 13:04:09;;;;;;;33.70;23.30;;;;;;;18.50;41.55;100342.81;5064680;28;20108;-75
2021/10/29 13:06:40;;;;;;;29.20;24.17;;;;;;;18.40;42.05;100350.97;5063561;28;20758;-74
2021/10/29 13:09:15;;;;;;;29.88;21.35;;;;;;;18.41;42.00;100344.59;5060108;28;20088;-73
2021/10/29 13:11:49;;;;;;;26.83;20.88;;;;;;;18.44;42.35;100341.63;5064659;28;20041;-74
2021/10/29 13:14:21;;;;;;;39.90;23.13;;;;;;;18.47;42.18;100341.28;5063394;28;20049;-73
2021/10/29 13:16:50;;;;;;;31.67;19.85;;;;;;;18.40;42.59;100345.63;5062393;28;20041;-73
2021/10/29 13:24:58;;;;;;;27.25;19.85;;;;;;;18.30;42.97;100347.56;5070648;28;20020;-74
2021/10/29 13:52:35;;;;;;;;;;;;;;;18.22;44.06;100332.31;5041611;28;20047;-71